Geronimo — PD6553 — position and weather

sailwx.info

Track history (hours):
 
Tides and Currents Weather Stations Pressure Air Temp Water Temp Dewpoint Dewpoint Depression Visibility Wind Speed Wind Dir Waves Ship Positions

Geronimo

Last reported at 2015-Aug-01 11:32 UTC. Time now 2015-Aug-01 11:48 UTC.
Position N 39°34' E 002°38'.

Length 20 m; draft 2.9 m.

Type: Sailing vessel. MMSI: 244620501.

Date/timePositionNaut miles runAvg speedWind from/ knotsBaromVisibWave heightAir tempDewpointWater temp
2015-Aug-01 11:32N 39°34' E 002°38'0 0.0
2015-Aug-01 10:32N 39°34' E 002°38'0 0.0
2015-Aug-01 09:32N 39°34' E 002°38'0 0.0
2015-Aug-01 08:32N 39°34' E 002°38'0 0.0
2015-Aug-01 07:32N 39°34' E 002°38'0 0.4
2015-Aug-01 06:33N 39°34' E 002°38'0 0.0
2015-Aug-01 05:33N 39°34' E 002°38'0 0.0
2015-Aug-01 04:33N 39°34' E 002°38'0 0.0
2015-Aug-01 03:33N 39°34' E 002°38'0 0.0
2015-Aug-01 02:33N 39°34' E 002°38'0 0.0
2015-Aug-01 01:33N 39°34' E 002°38'0 0.0
2015-Aug-01 00:33N 39°34' E 002°38'0 0.0
2015-Jul-31 23:33N 39°34' E 002°38'0 0.0
2015-Jul-31 22:33N 39°34' E 002°38'0 0.0
2015-Jul-31 21:33N 39°34' E 002°38'0 0.0
2015-Jul-31 20:33N 39°34' E 002°38'0 0.0
2015-Jul-31 19:33N 39°34' E 002°38'0 0.0
2015-Jul-31 18:33N 39°34' E 002°38'0 0.0
2015-Jul-31 17:33N 39°34' E 002°38'8 0.3
2015-Jul-30 16:32N 39°26' E 002°41'7 6.9
2015-Jul-30 15:28N 39°19' E 002°45'7 6.3
2015-Jul-30 14:20N 39°21' E 002°54'6 6.6
2015-Jul-30 13:26N 39°16' E 002°58'7 3.5
2015-Jul-30 11:32N 39°09' E 002°56'12 0.6
2015-Jul-29 17:33N 39°21' E 002°58'8 7.9
2015-Jul-29 16:33N 39°17' E 002°49'31 7.6
2015-Jul-29 12:31N 39°08' E 002°11'9 6.4
2015-Jul-29 11:05N 39°05' E 001°60'5 7.5
2015-Jul-29 10:27N 39°04' E 001°54'15 1.0
2015-Jul-28 19:30N 38°58' E 001°36'18 0.7
2015-Jul-27 19:21N 38°41' E 001°31'0 0.0
2015-Jul-27 18:15N 38°41' E 001°31'2 3.1
2015-Jul-27 17:33N 38°42' E 001°34'9 0.4
2015-Jul-26 19:21N 38°51' E 001°30'7 7.7
2015-Jul-26 18:30N 38°55' E 001°37'6 1.5
2015-Jul-26 14:32N 39°00' E 001°35'0 0.0
2015-Jul-26 13:32N 39°00' E 001°35'0 0.0
2015-Jul-26 12:29N 39°00' E 001°35'2 1.8
2015-Jul-26 11:33N 38°59' E 001°35'2 2.1
2015-Jul-26 10:33N 38°59' E 001°32'0 0.0
2015-Jul-26 09:33N 38°59' E 001°32'1 1.4
2015-Jul-26 08:32N 38°59' E 001°34'0 0.0
2015-Jul-26 07:32N 38°59' E 001°34'0 0.0
2015-Jul-26 06:32N 38°59' E 001°34'0 0.0
2015-Jul-26 05:32N 38°59' E 001°34'0 0.0
2015-Jul-26 04:32N 38°59' E 001°34'0 0.0
2015-Jul-26 03:32N 38°59' E 001°34'0 0.0
2015-Jul-26 02:32N 38°59' E 001°34'0 0.0
2015-Jul-26 01:32N 38°59' E 001°34'0 0.0
2015-Jul-26 00:32N 38°59' E 001°34'0 0.0
2015-Jul-25 23:32N 38°59' E 001°34'0 0.0
2015-Jul-25 22:32N 38°59' E 001°34'0 0.0
2015-Jul-25 21:32N 38°59' E 001°34'0 0.0
2015-Jul-25 20:32N 38°59' E 001°34'0 0.0
2015-Jul-25 19:32N 38°59' E 001°34'0 0.0
2015-Jul-25 18:32N 38°59' E 001°34'4 4.3
2015-Jul-25 17:33N 39°02' E 001°38'1 0.2
2015-Jul-25 13:33N 39°02' E 001°37'0 0.0
2015-Jul-25 12:18N 39°02' E 001°37'1 0.7
2015-Jul-25 11:30N 39°02' E 001°37'1 0.8
2015-Jul-25 10:28N 39°02' E 001°36'0 0.0
2015-Jul-25 09:31N 39°02' E 001°36'1 0.9
2015-Jul-25 08:33N 39°02' E 001°37'1 0.5
2015-Jul-25 07:24N 39°02' E 001°37'0 0.0
2015-Jul-25 06:30N 39°02' E 001°37'0 0.0
2015-Jul-25 02:33N 39°02' E 001°37'0 0.0
2015-Jul-25 01:30N 39°02' E 001°37'0 0.0
2015-Jul-25 00:30N 39°02' E 001°37'0 0.0
2015-Jul-24 23:30N 39°02' E 001°37'0 0.0
2015-Jul-24 22:12N 39°02' E 001°37'0 0.0
2015-Jul-24 20:18N 39°02' E 001°37'0 0.0
2015-Jul-24 19:24N 39°02' E 001°37'0 0.0
2015-Jul-24 18:24N 39°02' E 001°37'0 0.0
2015-Jul-24 17:24N 39°02' E 001°37'0 0.0
2015-Jul-24 16:24N 39°02' E 001°37'0 0.0
2015-Jul-24 15:31N 39°02' E 001°37'0 0.0
2015-Jul-24 14:25N 39°02' E 001°37'2 1.8
2015-Jul-24 13:22N 39°01' E 001°39'2 1.9
2015-Jul-24 12:31N 39°03' E 001°38'3 2.6
2015-Jul-24 11:33N 39°01' E 001°40'8 7.6
2015-Jul-24 10:33N 38°56' E 001°32'4 0.4
2015-Jul-23 23:12N 38°54' E 001°27'7 1.3
2015-Jul-23 18:09N 38°48' E 001°27'3 4.5
2015-Jul-23 17:32N 38°45' E 001°27'1 0.1
2015-Jul-23 12:05N 38°45' E 001°28'2 0.2
2015-Jul-23 02:29N 38°45' E 001°26'0 0.0
2015-Jul-22 19:10N 38°45' E 001°26'4 6.7
2015-Jul-22 18:33N 38°49' E 001°25'7 7.2
2015-Jul-22 17:33N 38°54' E 001°31'6 5.6
2015-Jul-22 16:33N 38°59' E 001°35'2 1.9
2015-Jul-22 15:29N 39°01' E 001°35'0 0.4
2015-Jul-22 14:33N 39°00' E 001°35'0 0.0
2015-Jul-22 13:33N 39°00' E 001°35'0 0.0
2015-Jul-22 12:24N 39°00' E 001°35'  
Track history (hours):
 
Tides and Currents Weather Stations Pressure Air Temp Water Temp Dewpoint Dewpoint Depression Visibility Wind Speed Wind Dir Waves Ship Positions

Geronimo

Last reported at 2015-Aug-01 11:32 UTC. Time now 2015-Aug-01 11:48 UTC.
Position N 39°34' E 002°38'.

Length 20 m; draft 2.9 m.

Type: Sailing vessel. MMSI: 244620501.

Date/timePositionNaut miles runAvg speedWind from/ knotsBaromVisibWave heightAir tempDewpointWater temp
2015-Aug-01 11:32N 39°34' E 002°38'0 0.0
2015-Aug-01 10:32N 39°34' E 002°38'0 0.0
2015-Aug-01 09:32N 39°34' E 002°38'0 0.0
2015-Aug-01 08:32N 39°34' E 002°38'0 0.0
2015-Aug-01 07:32N 39°34' E 002°38'0 0.4
2015-Aug-01 06:33N 39°34' E 002°38'0 0.0
2015-Aug-01 05:33N 39°34' E 002°38'0 0.0
2015-Aug-01 04:33N 39°34' E 002°38'0 0.0
2015-Aug-01 03:33N 39°34' E 002°38'0 0.0
2015-Aug-01 02:33N 39°34' E 002°38'0 0.0
2015-Aug-01 01:33N 39°34' E 002°38'0 0.0
2015-Aug-01 00:33N 39°34' E 002°38'0 0.0
2015-Jul-31 23:33N 39°34' E 002°38'0 0.0
2015-Jul-31 22:33N 39°34' E 002°38'0 0.0
2015-Jul-31 21:33N 39°34' E 002°38'0 0.0
2015-Jul-31 20:33N 39°34' E 002°38'0 0.0
2015-Jul-31 19:33N 39°34' E 002°38'0 0.0
2015-Jul-31 18:33N 39°34' E 002°38'0 0.0
2015-Jul-31 17:33N 39°34' E 002°38'8 0.3
2015-Jul-30 16:32N 39°26' E 002°41'7 6.9
2015-Jul-30 15:28N 39°19' E 002°45'7 6.3
2015-Jul-30 14:20N 39°21' E 002°54'6 6.6
2015-Jul-30 13:26N 39°16' E 002°58'7 3.5
2015-Jul-30 11:32N 39°09' E 002°56'12 0.6
2015-Jul-29 17:33N 39°21' E 002°58'8 7.9
2015-Jul-29 16:33N 39°17' E 002°49'31 7.6
2015-Jul-29 12:31N 39°08' E 002°11'9 6.4
2015-Jul-29 11:05N 39°05' E 001°60'5 7.5
2015-Jul-29 10:27N 39°04' E 001°54'15 1.0
2015-Jul-28 19:30N 38°58' E 001°36'18 0.7
2015-Jul-27 19:21N 38°41' E 001°31'0 0.0
2015-Jul-27 18:15N 38°41' E 001°31'2 3.1
2015-Jul-27 17:33N 38°42' E 001°34'9 0.4
2015-Jul-26 19:21N 38°51' E 001°30'7 7.7
2015-Jul-26 18:30N 38°55' E 001°37'6 1.5
2015-Jul-26 14:32N 39°00' E 001°35'0 0.0
2015-Jul-26 13:32N 39°00' E 001°35'0 0.0
2015-Jul-26 12:29N 39°00' E 001°35'2 1.8
2015-Jul-26 11:33N 38°59' E 001°35'2 2.1
2015-Jul-26 10:33N 38°59' E 001°32'0 0.0
2015-Jul-26 09:33N 38°59' E 001°32'1 1.4
2015-Jul-26 08:32N 38°59' E 001°34'0 0.0
2015-Jul-26 07:32N 38°59' E 001°34'0 0.0
2015-Jul-26 06:32N 38°59' E 001°34'0 0.0
2015-Jul-26 05:32N 38°59' E 001°34'0 0.0
2015-Jul-26 04:32N 38°59' E 001°34'0 0.0
2015-Jul-26 03:32N 38°59' E 001°34'0 0.0
2015-Jul-26 02:32N 38°59' E 001°34'0 0.0
2015-Jul-26 01:32N 38°59' E 001°34'0 0.0
2015-Jul-26 00:32N 38°59' E 001°34'0 0.0
2015-Jul-25 23:32N 38°59' E 001°34'0 0.0
2015-Jul-25 22:32N 38°59' E 001°34'0 0.0
2015-Jul-25 21:32N 38°59' E 001°34'0 0.0
2015-Jul-25 20:32N 38°59' E 001°34'0 0.0
2015-Jul-25 19:32N 38°59' E 001°34'0 0.0
2015-Jul-25 18:32N 38°59' E 001°34'4 4.3
2015-Jul-25 17:33N 39°02' E 001°38'1 0.2
2015-Jul-25 13:33N 39°02' E 001°37'0 0.0
2015-Jul-25 12:18N 39°02' E 001°37'1 0.7
2015-Jul-25 11:30N 39°02' E 001°37'1 0.8
2015-Jul-25 10:28N 39°02' E 001°36'0 0.0
2015-Jul-25 09:31N 39°02' E 001°36'1 0.9
2015-Jul-25 08:33N 39°02' E 001°37'1 0.5
2015-Jul-25 07:24N 39°02' E 001°37'0 0.0
2015-Jul-25 06:30N 39°02' E 001°37'0 0.0
2015-Jul-25 02:33N 39°02' E 001°37'0 0.0
2015-Jul-25 01:30N 39°02' E 001°37'0 0.0
2015-Jul-25 00:30N 39°02' E 001°37'0 0.0
2015-Jul-24 23:30N 39°02' E 001°37'0 0.0
2015-Jul-24 22:12N 39°02' E 001°37'0 0.0
2015-Jul-24 20:18N 39°02' E 001°37'0 0.0
2015-Jul-24 19:24N 39°02' E 001°37'0 0.0
2015-Jul-24 18:24N 39°02' E 001°37'0 0.0
2015-Jul-24 17:24N 39°02' E 001°37'0 0.0
2015-Jul-24 16:24N 39°02' E 001°37'0 0.0
2015-Jul-24 15:31N 39°02' E 001°37'0 0.0
2015-Jul-24 14:25N 39°02' E 001°37'2 1.8
2015-Jul-24 13:22N 39°01' E 001°39'2 1.9
2015-Jul-24 12:31N 39°03' E 001°38'3 2.6
2015-Jul-24 11:33N 39°01' E 001°40'8 7.6
2015-Jul-24 10:33N 38°56' E 001°32'4 0.4
2015-Jul-23 23:12N 38°54' E 001°27'7 1.3
2015-Jul-23 18:09N 38°48' E 001°27'3 4.5
2015-Jul-23 17:32N 38°45' E 001°27'1 0.1
2015-Jul-23 12:05N 38°45' E 001°28'2 0.2
2015-Jul-23 02:29N 38°45' E 001°26'0 0.0
2015-Jul-22 19:10N 38°45' E 001°26'4 6.7
2015-Jul-22 18:33N 38°49' E 001°25'7 7.2
2015-Jul-22 17:33N 38°54' E 001°31'6 5.6
2015-Jul-22 16:33N 38°59' E 001°35'2 1.9
2015-Jul-22 15:29N 39°01' E 001°35'0 0.4
2015-Jul-22 14:33N 39°00' E 001°35'0 0.0
2015-Jul-22 13:33N 39°00' E 001°35'0 0.0
2015-Jul-22 12:24N 39°00' E 001°35'  

Dump ship's entire track history